createdAt,value
2019-04-09T00:00:57.762Z,8.02
2019-04-09T00:01:57.751Z,8.05
2019-04-09T00:02:58.703Z,8.01
2019-04-09T00:03:58.608Z,7.98
2019-04-09T00:04:57.788Z,8.01
2019-04-09T00:05:58.618Z,7.95
2019-04-09T00:06:58.797Z,7.96
2019-04-09T00:08:09.835Z,8
2019-04-09T00:08:58.542Z,8.15
2019-04-09T00:09:57.742Z,8.14
2019-04-09T00:10:57.781Z,8.17
2019-04-09T00:12:00.520Z,8.17
2019-04-09T00:12:57.859Z,8.17
2019-04-09T00:13:57.718Z,8.14
2019-04-09T00:14:58.780Z,8.04
2019-04-09T00:15:58.692Z,8.2
2019-04-09T00:16:57.743Z,8.16
2019-04-09T00:17:57.732Z,8.09
2019-04-09T00:18:58.500Z,8.1
2019-04-09T00:19:57.729Z,8.06
2019-04-09T00:20:57.900Z,8.01
2019-04-09T00:21:57.713Z,7.99
2019-04-09T00:22:57.715Z,8.04
2019-04-09T00:23:57.696Z,8.04
2019-04-09T00:24:57.723Z,8.1
2019-04-09T00:25:57.676Z,8.09
2019-04-09T00:26:57.762Z,8.01
2019-04-09T00:27:57.757Z,7.97
2019-04-09T00:28:58.348Z,7.95
2019-04-09T00:29:58.270Z,7.96
2019-04-09T00:30:58.264Z,7.89
2019-04-09T00:31:57.724Z,7.92
2019-04-09T00:32:57.717Z,7.95
2019-04-09T00:33:57.687Z,7.93
2019-04-09T00:34:57.728Z,7.96
2019-04-09T00:35:57.753Z,8
2019-04-09T00:36:58.414Z,7.97
2019-04-09T00:37:58.431Z,7.99
2019-04-09T00:38:57.698Z,8.07
2019-04-09T00:39:57.713Z,7.98
2019-04-09T00:40:57.694Z,7.94
2019-04-09T00:41:57.722Z,8.01
2019-04-09T00:42:58.457Z,8
2019-04-09T00:43:57.689Z,7.98
2019-04-09T00:44:57.672Z,7.95
2019-04-09T00:45:58.877Z,7.96
2019-04-09T00:46:57.739Z,7.96
2019-04-09T00:47:57.714Z,7.99
2019-04-09T00:48:57.730Z,7.94
2019-04-09T00:49:59.420Z,8
2019-04-09T00:50:57.893Z,7.94
2019-04-09T00:51:57.856Z,7.9
2019-04-09T00:52:57.642Z,7.92
2019-04-09T00:53:58.863Z,7.98
2019-04-09T00:54:58.634Z,8.04
2019-04-09T00:55:57.877Z,7.99
2019-04-09T00:57:10.924Z,7.98
2019-04-09T00:57:57.625Z,7.92
2019-04-09T00:58:57.648Z,7.91
2019-04-09T00:59:57.641Z,7.91
2019-04-09T01:00:57.663Z,7.93
2019-04-09T01:01:57.635Z,7.97
2019-04-09T01:02:57.620Z,7.95
2019-04-09T01:03:57.613Z,7.9
2019-04-09T01:04:57.635Z,7.88
2019-04-09T01:05:58.508Z,7.87
2019-04-09T01:06:58.512Z,7.87
2019-04-09T01:07:57.661Z,7.87
2019-04-09T01:08:58.526Z,7.86
2019-04-09T01:09:57.629Z,7.95
2019-04-09T01:10:57.704Z,7.92
2019-04-09T01:11:57.597Z,7.96
2019-04-09T01:12:58.167Z,7.86
2019-04-09T01:13:57.671Z,7.84
2019-04-09T01:14:57.649Z,7.88
2019-04-09T01:15:59.805Z,7.93
2019-04-09T01:16:58.694Z,7.94
2019-04-09T01:17:58.678Z,7.86
2019-04-09T01:19:23.126Z,7.83
2019-04-09T01:19:58.730Z,7.88
2019-04-09T01:20:58.715Z,7.85
2019-04-09T01:21:57.617Z,7.96
2019-04-09T01:22:57.738Z,7.97
2019-04-09T01:23:57.859Z,7.89
2019-04-09T01:24:57.817Z,8.03
2019-04-09T01:25:57.934Z,8.02
2019-04-09T01:27:24.408Z,8.04
2019-04-09T01:27:57.818Z,7.95
2019-04-09T01:28:57.862Z,7.92
2019-04-09T01:29:57.686Z,7.88
2019-04-09T01:30:57.602Z,7.89
2019-04-09T01:31:58.192Z,7.94
2019-04-09T01:32:58.208Z,7.89
2019-04-09T01:33:58.065Z,7.92
2019-04-09T01:34:57.631Z,7.9
2019-04-09T01:35:57.904Z,7.87
2019-04-09T01:36:57.980Z,7.88
2019-04-09T01:37:57.840Z,7.91
2019-04-09T01:38:57.589Z,7.96
2019-04-09T01:39:57.636Z,7.95
2019-04-09T01:41:00.242Z,7.93
2019-04-09T01:41:57.627Z,7.92
2019-04-09T01:42:58.130Z,7.96
2019-04-09T01:43:57.564Z,7.89
2019-04-09T01:44:57.569Z,7.97
2019-04-09T01:45:58.113Z,7.9
2019-04-09T01:46:57.861Z,7.85
2019-04-09T01:47:57.729Z,7.84
2019-04-09T01:48:57.656Z,7.83
2019-04-09T01:49:57.580Z,7.87
2019-04-09T01:50:58.103Z,7.86
2019-04-09T01:51:57.998Z,7.81
2019-04-09T01:52:57.581Z,7.84
2019-04-09T01:53:57.653Z,7.86
2019-04-09T01:54:57.700Z,7.86
2019-04-09T01:55:58.261Z,7.84
2019-04-09T01:56:58.161Z,7.83
2019-04-09T01:57:58.240Z,7.79
2019-04-09T01:58:58.044Z,7.79
2019-04-09T01:59:57.576Z,7.81
2019-04-09T02:00:57.585Z,7.8
2019-04-09T02:01:57.606Z,7.92
2019-04-09T02:02:57.591Z,7.96
2019-04-09T02:03:58.387Z,7.92
2019-04-09T02:04:58.493Z,7.97
2019-04-09T02:05:58.498Z,7.97
2019-04-09T02:06:57.603Z,8
2019-04-09T02:07:57.585Z,8.01
2019-04-09T02:08:57.586Z,7.98
2019-04-09T02:09:58.627Z,7.95
2019-04-09T02:10:58.236Z,7.93
2019-04-09T02:11:57.812Z,7.97
2019-04-09T02:12:57.714Z,8.02
2019-04-09T02:13:58.857Z,8.06
2019-04-09T02:14:58.795Z,7.98
2019-04-09T02:15:57.544Z,7.95
2019-04-09T02:16:57.591Z,8.02
2019-04-09T02:17:57.548Z,7.91
2019-04-09T02:18:57.818Z,7.9
2019-04-09T02:19:58.727Z,7.89
2019-04-09T02:20:57.954Z,7.98
2019-04-09T02:21:57.882Z,8.03
2019-04-09T02:22:57.567Z,8.01
2019-04-09T02:23:57.564Z,7.94
2019-04-09T02:25:00.652Z,7.92
2019-04-09T02:25:57.837Z,7.92
2019-04-09T02:26:57.655Z,7.88
2019-04-09T02:27:57.547Z,7.84
2019-04-09T02:28:58.451Z,7.85
2019-04-09T02:29:58.044Z,7.83
2019-04-09T02:30:59.358Z,7.83
2019-04-09T02:31:57.809Z,7.86
2019-04-09T02:32:58.915Z,7.82
2019-04-09T02:33:58.816Z,7.79
2019-04-09T02:34:57.528Z,7.86
2019-04-09T02:35:57.639Z,7.86
2019-04-09T02:37:02.358Z,7.84
2019-04-09T02:37:59.585Z,7.91
2019-04-09T02:38:57.550Z,7.85
2019-04-09T02:39:57.489Z,7.82
2019-04-09T02:40:57.532Z,7.82
2019-04-09T02:41:58.628Z,7.85
2019-04-09T02:42:57.951Z,7.8
2019-04-09T02:43:58.664Z,7.77
2019-04-09T02:44:57.940Z,7.76
2019-04-09T02:45:57.897Z,7.76
2019-04-09T02:46:57.549Z,7.74
2019-04-09T02:47:57.498Z,7.77
2019-04-09T02:48:58.700Z,7.73
2019-04-09T02:49:57.467Z,7.79
2019-04-09T02:50:59.675Z,7.83
2019-04-09T02:51:58.776Z,7.82
2019-04-09T02:52:58.500Z,7.81
2019-04-09T02:53:58.701Z,7.83
2019-04-09T02:54:58.557Z,7.79
2019-04-09T02:55:58.132Z,7.8
2019-04-09T02:56:57.451Z,7.77
2019-04-09T02:58:00.607Z,7.8
2019-04-09T02:58:57.493Z,7.81
2019-04-09T02:59:59.733Z,7.8
2019-04-09T03:00:57.563Z,7.75
2019-04-09T03:01:57.470Z,7.73
2019-04-09T03:02:57.477Z,7.73
2019-04-09T03:03:58.185Z,7.72
2019-04-09T03:04:58.081Z,7.75
2019-04-09T03:05:57.471Z,7.72
2019-04-09T03:06:57.519Z,7.77
2019-04-09T03:07:57.449Z,7.74
2019-04-09T03:08:57.537Z,7.8
2019-04-09T03:09:57.603Z,7.82
2019-04-09T03:10:57.784Z,7.87
2019-04-09T03:11:58.636Z,7.81
2019-04-09T03:12:57.476Z,7.83
2019-04-09T03:13:57.634Z,7.89
2019-04-09T03:14:57.578Z,7.84
2019-04-09T03:15:57.568Z,7.81
2019-04-09T03:16:57.466Z,7.85
2019-04-09T03:17:58.471Z,7.83
2019-04-09T03:18:58.366Z,7.85
2019-04-09T03:19:57.518Z,7.88
2019-04-09T03:20:57.425Z,7.91
2019-04-09T03:21:57.439Z,7.9
2019-04-09T03:22:57.465Z,7.84
2019-04-09T03:23:58.315Z,7.78
2019-04-09T03:24:57.496Z,7.76
2019-04-09T03:25:57.836Z,7.86
2019-04-09T03:26:57.455Z,7.83
2019-04-09T03:28:16.159Z,7.76
2019-04-09T03:28:57.925Z,7.76
2019-04-09T03:29:57.464Z,7.75
2019-04-09T03:31:03.885Z,7.74
2019-04-09T03:32:06.428Z,7.74
2019-04-09T03:32:57.953Z,7.7
2019-04-09T03:34:04.509Z,7.74
2019-04-09T03:34:58.592Z,7.75
2019-04-09T03:35:58.594Z,7.82
2019-04-09T03:36:57.444Z,7.78
2019-04-09T03:37:57.683Z,7.8
2019-04-09T03:38:57.468Z,7.81
2019-04-09T03:39:57.605Z,7.78
2019-04-09T03:40:59.136Z,7.75
2019-04-09T03:41:57.515Z,7.75
2019-04-09T03:42:57.688Z,7.75
2019-04-09T03:43:57.463Z,7.77
2019-04-09T03:44:58.805Z,7.72
2019-04-09T03:45:57.891Z,7.72
2019-04-09T03:46:57.407Z,7.7
2019-04-09T03:47:59.122Z,7.72
2019-04-09T03:48:58.160Z,7.77
2019-04-09T03:49:57.417Z,7.73
2019-04-09T03:50:57.404Z,7.68
2019-04-09T03:51:58.227Z,7.76
2019-04-09T03:52:58.290Z,7.71
2019-04-09T03:53:57.893Z,7.68
2019-04-09T03:54:57.753Z,7.72
2019-04-09T03:56:03.129Z,7.69
2019-04-09T03:56:57.402Z,7.68
2019-04-09T03:57:57.489Z,7.67
2019-04-09T03:58:58.941Z,7.64
2019-04-09T03:59:58.368Z,7.61
2019-04-09T04:00:57.464Z,7.62
2019-04-09T04:01:57.657Z,7.63
2019-04-09T04:02:57.445Z,7.61
2019-04-09T04:03:57.396Z,7.63
2019-04-09T04:04:57.402Z,7.74
2019-04-09T04:05:57.418Z,7.65
2019-04-09T04:06:57.414Z,7.66
2019-04-09T04:07:58.505Z,7.67
2019-04-09T04:08:58.433Z,7.7
2019-04-09T04:09:57.376Z,7.68
2019-04-09T04:10:57.389Z,7.7
2019-04-09T04:11:58.669Z,7.65
2019-04-09T04:12:57.969Z,7.61
2019-04-09T04:13:57.996Z,7.66
2019-04-09T04:14:57.402Z,7.64
2019-04-09T04:15:57.366Z,7.66
2019-04-09T04:16:57.408Z,7.76
2019-04-09T04:17:57.435Z,7.71
2019-04-09T04:18:58.944Z,7.64
2019-04-09T04:19:58.272Z,7.62
2019-04-09T04:20:58.394Z,7.64
2019-04-09T04:21:57.339Z,7.64
2019-04-09T04:22:58.381Z,7.58
2019-04-09T04:23:58.186Z,7.6
2019-04-09T04:24:57.467Z,7.6
2019-04-09T04:25:57.803Z,7.62
2019-04-09T04:26:57.380Z,7.73
2019-04-09T04:27:58.396Z,7.73
2019-04-09T04:28:58.851Z,7.71
2019-04-09T04:30:00.408Z,7.72
2019-04-09T04:30:57.882Z,7.67
2019-04-09T04:31:58.552Z,7.7
2019-04-09T04:32:58.485Z,7.63
2019-04-09T04:33:58.482Z,7.62
2019-04-09T04:34:57.345Z,7.56
2019-04-09T04:35:57.793Z,7.57
2019-04-09T04:36:57.976Z,7.59
2019-04-09T04:37:58.207Z,7.61
2019-04-09T04:38:57.372Z,7.63
2019-04-09T04:39:57.742Z,7.6
2019-04-09T04:40:58.204Z,7.57
2019-04-09T04:41:57.407Z,7.6
2019-04-09T04:42:57.350Z,7.71
2019-04-09T04:43:57.814Z,7.68
2019-04-09T04:44:57.597Z,7.69
2019-04-09T04:45:58.499Z,7.64
2019-04-09T04:46:57.331Z,7.71
2019-04-09T04:47:57.381Z,7.68
2019-04-09T04:48:57.393Z,7.7
2019-04-09T04:49:58.269Z,7.72
2019-04-09T04:50:58.105Z,7.71
2019-04-09T04:52:02.228Z,7.65
2019-04-09T04:52:58.078Z,7.64
2019-04-09T04:53:57.543Z,7.72
2019-04-09T04:54:57.315Z,7.67
2019-04-09T04:55:57.588Z,7.75
2019-04-09T04:56:58.588Z,7.68
2019-04-09T04:57:57.324Z,7.69
2019-04-09T04:58:58.112Z,7.69
2019-04-09T04:59:58.470Z,7.71
2019-04-09T05:00:57.699Z,7.67
2019-04-09T05:01:58.437Z,7.74
2019-04-09T05:02:57.960Z,7.71
2019-04-09T05:03:57.307Z,7.73
2019-04-09T05:04:58.369Z,7.72
2019-04-09T05:05:57.688Z,7.71
2019-04-09T05:06:57.270Z,7.71
2019-04-09T05:07:57.449Z,7.69
2019-04-09T05:08:58.083Z,7.71
2019-04-09T05:09:57.420Z,7.63
2019-04-09T05:10:57.300Z,7.66
2019-04-09T05:11:57.307Z,7.63
2019-04-09T05:12:57.670Z,7.61
2019-04-09T05:13:57.342Z,7.64
2019-04-09T05:14:57.357Z,7.62
2019-04-09T05:15:57.923Z,7.63
2019-04-09T05:16:58.447Z,7.62
2019-04-09T05:17:57.326Z,7.58
2019-04-09T05:18:58.147Z,7.56
2019-04-09T05:19:57.405Z,7.64
2019-04-09T05:20:57.878Z,7.58
2019-04-09T05:21:57.300Z,7.58
2019-04-09T05:22:57.284Z,7.57
2019-04-09T05:23:58.422Z,7.55
2019-04-09T05:24:57.403Z,7.59
2019-04-09T05:25:57.994Z,7.54
2019-04-09T05:26:58.404Z,7.57
2019-04-09T05:27:58.517Z,7.55
2019-04-09T05:29:10.167Z,7.56
2019-04-09T05:29:57.356Z,7.68
2019-04-09T05:30:57.311Z,7.6
2019-04-09T05:31:57.337Z,7.66
2019-04-09T05:33:04.878Z,7.68
2019-04-09T05:33:57.311Z,7.66
2019-04-09T05:34:57.265Z,7.67
2019-04-09T05:35:57.368Z,7.67
2019-04-09T05:36:58.518Z,7.69
2019-04-09T05:37:57.770Z,7.66
2019-04-09T05:39:04.979Z,7.61
2019-04-09T05:39:57.295Z,7.65
2019-04-09T05:40:57.377Z,7.65
2019-04-09T05:41:58.444Z,7.65
2019-04-09T05:42:57.520Z,7.65
2019-04-09T05:43:57.424Z,7.67
2019-04-09T05:44:57.335Z,7.65
2019-04-09T05:45:57.531Z,7.72
2019-04-09T05:46:57.262Z,7.66
2019-04-09T05:47:57.273Z,7.73
2019-04-09T05:48:57.965Z,7.81
2019-04-09T05:49:57.401Z,7.77
2019-04-09T05:50:58.497Z,7.78
2019-04-09T05:51:59.951Z,7.8
2019-04-09T05:52:58.379Z,7.79
2019-04-09T05:53:57.250Z,7.73
2019-04-09T05:54:58.290Z,7.74
2019-04-09T05:55:58.092Z,7.73
2019-04-09T05:56:57.237Z,7.7
2019-04-09T05:57:57.334Z,7.73
2019-04-09T05:59:11.554Z,7.74
2019-04-09T05:59:57.343Z,7.71
2019-04-09T06:00:57.322Z,7.7
2019-04-09T06:01:57.270Z,7.69
2019-04-09T06:03:02.466Z,7.69
2019-04-09T06:03:57.254Z,7.71
2019-04-09T06:04:58.488Z,7.78
2019-04-09T06:05:57.648Z,7.75
2019-04-09T06:06:57.448Z,7.77
2019-04-09T06:07:59.911Z,7.78
2019-04-09T06:08:57.281Z,7.84
2019-04-09T06:09:59.759Z,7.81
2019-04-09T06:10:57.241Z,7.81
2019-04-09T06:11:58.621Z,7.79
2019-04-09T06:12:57.467Z,7.86
2019-04-09T06:13:58.061Z,7.87
2019-04-09T06:14:57.270Z,7.88
2019-04-09T06:15:57.614Z,7.91
2019-04-09T06:16:57.351Z,7.88
2019-04-09T06:17:57.665Z,7.9
2019-04-09T06:18:57.234Z,7.96
2019-04-09T06:19:57.194Z,8
2019-04-09T06:20:57.243Z,8.04
2019-04-09T06:21:57.257Z,8.06
2019-04-09T06:22:57.763Z,8.05
2019-04-09T06:23:57.233Z,8.08
2019-04-09T06:24:57.187Z,8.13
2019-04-09T06:25:58.183Z,8.1
2019-04-09T06:26:59.442Z,8.1
2019-04-09T06:27:57.582Z,8.11
2019-04-09T06:28:57.192Z,8.13
2019-04-09T06:29:57.213Z,8.11
2019-04-09T06:30:58.124Z,8.18
2019-04-09T06:31:57.342Z,8.15
2019-04-09T06:32:57.216Z,8.14
2019-04-09T06:33:57.538Z,8.13
2019-04-09T06:34:57.246Z,8.19
2019-04-09T06:35:57.774Z,8.17
2019-04-09T06:36:57.247Z,8.18
2019-04-09T06:37:57.863Z,8.17
2019-04-09T06:38:58.669Z,8.16
2019-04-09T06:39:57.618Z,8.17
2019-04-09T06:40:57.298Z,8.17
2019-04-09T06:41:58.451Z,8.16
2019-04-09T06:42:57.167Z,8.21
2019-04-09T06:43:57.174Z,8.23
2019-04-09T06:44:57.515Z,8.22
2019-04-09T06:45:57.857Z,8.25
2019-04-09T06:46:57.197Z,8.2
2019-04-09T06:47:59.582Z,8.2
2019-04-09T06:48:57.834Z,8.24
2019-04-09T06:49:57.227Z,8.25
2019-04-09T06:50:57.163Z,8.28
2019-04-09T06:52:02.778Z,8.31
2019-04-09T06:52:57.209Z,8.39
2019-04-09T06:53:57.790Z,8.32
2019-04-09T06:55:13.612Z,8.36
2019-04-09T06:55:57.198Z,8.34
2019-04-09T06:56:57.675Z,8.31
2019-04-09T06:57:58.405Z,8.33
2019-04-09T06:58:57.306Z,8.31
2019-04-09T06:59:57.158Z,8.34
2019-04-09T07:00:58.438Z,8.33
2019-04-09T07:01:57.610Z,8.34
2019-04-09T07:02:57.199Z,8.41
2019-04-09T07:04:05.706Z,8.39
2019-04-09T07:04:57.201Z,8.41
2019-04-09T07:05:58.820Z,8.46
2019-04-09T07:06:58.069Z,8.48
2019-04-09T07:07:57.639Z,8.4
2019-04-09T07:08:57.659Z,8.42
2019-04-09T07:09:58.080Z,8.49
2019-04-09T07:11:21.768Z,8.5
2019-04-09T07:11:57.906Z,8.59
2019-04-09T07:12:57.840Z,8.61
2019-04-09T07:13:58.116Z,8.59
2019-04-09T07:14:57.713Z,8.58
2019-04-09T07:15:57.174Z,8.6
2019-04-09T07:17:00.585Z,8.55
2019-04-09T07:17:57.125Z,8.58
2019-04-09T07:18:58.026Z,8.61
2019-04-09T07:19:57.145Z,8.61
2019-04-09T07:20:57.460Z,8.69
2019-04-09T07:21:57.294Z,8.69
2019-04-09T07:22:57.678Z,8.66
2019-04-09T07:23:57.175Z,8.64
2019-04-09T07:24:57.179Z,8.69
2019-04-09T07:25:57.187Z,8.67
2019-04-09T07:26:59.509Z,8.6
2019-04-09T07:27:58.267Z,8.66
2019-04-09T07:29:04.022Z,8.7
2019-04-09T07:30:14.151Z,8.72
2019-04-09T07:30:58.809Z,8.8
2019-04-09T07:32:07.067Z,8.91
2019-04-09T07:32:58.312Z,8.85
2019-04-09T07:33:57.376Z,8.89
2019-04-09T07:34:58.155Z,8.9
2019-04-09T07:36:07.273Z,8.94
2019-04-09T07:36:57.168Z,8.92
2019-04-09T07:37:57.160Z,8.94
2019-04-09T07:38:59.472Z,8.97
2019-04-09T07:40:02.732Z,8.9
2019-04-09T07:40:57.139Z,8.94
2019-04-09T07:41:57.200Z,8.93
2019-04-09T07:42:57.109Z,8.97
2019-04-09T07:44:05.697Z,8.96
2019-04-09T07:45:06.217Z,8.93
2019-04-09T07:45:58.179Z,9
2019-04-09T07:46:57.111Z,9.01
2019-04-09T07:47:57.282Z,8.91
2019-04-09T07:49:03.946Z,8.93
2019-04-09T07:50:13.277Z,8.94
2019-04-09T07:50:57.198Z,8.9
2019-04-09T07:51:57.075Z,8.98
2019-04-09T07:53:02.708Z,9
2019-04-09T07:54:04.708Z,8.95
2019-04-09T07:54:58.432Z,8.97
2019-04-09T07:56:01.165Z,9.01
2019-04-09T07:57:06.006Z,9.05
2019-04-09T07:57:57.114Z,9.1
2019-04-09T07:58:57.930Z,9.03
2019-04-09T08:00:28.296Z,9.06
2019-04-09T08:00:58.117Z,9.07
2019-04-09T08:02:00.328Z,9.09
2019-04-09T08:03:01.562Z,9.12
2019-04-09T08:04:13.175Z,9.15
2019-04-09T08:04:57.110Z,9.15
2019-04-09T08:05:58.701Z,9.14
2019-04-09T08:07:09.141Z,9.14
2019-04-09T08:08:09.200Z,9.16
2019-04-09T08:08:58.259Z,9.11
2019-04-09T08:09:57.997Z,9.02
2019-04-09T08:11:08.546Z,9.02
2019-04-09T08:11:57.117Z,9.15
2019-04-09T08:12:57.064Z,9.1
2019-04-09T08:13:57.682Z,9.13
2019-04-09T08:15:04.647Z,9.05
2019-04-09T08:15:58.010Z,9.07
2019-04-09T08:16:58.568Z,9.08
2019-04-09T08:18:23.497Z,9
2019-04-09T08:18:57.927Z,8.97
2019-04-09T08:19:57.054Z,9.03
2019-04-09T08:21:02.802Z,9.07
2019-04-09T08:21:57.210Z,9.07
2019-04-09T08:22:57.102Z,9.09
2019-04-09T08:23:59.483Z,9.11
2019-04-09T08:25:01.898Z,9.06
2019-04-09T08:26:06.657Z,9.14
2019-04-09T08:26:57.264Z,9.04
2019-04-09T08:27:57.586Z,9.08
2019-04-09T08:28:57.085Z,9.09
2019-04-09T08:30:31.675Z,9.13
2019-04-09T08:30:57.035Z,9.1
2019-04-09T08:32:22.841Z,9.13
2019-04-09T08:32:58.168Z,9.1
2019-04-09T08:33:58.716Z,8.98
2019-04-09T08:35:07.812Z,9.02
2019-04-09T08:36:03.993Z,8.99
2019-04-09T08:36:57.036Z,9.09
2019-04-09T08:38:02.552Z,9.09
2019-04-09T08:39:06.395Z,9.11
2019-04-09T08:39:57.766Z,9.1
2019-04-09T08:40:57.086Z,9.13
2019-04-09T08:41:57.896Z,9.09
2019-04-09T08:43:09.744Z,9.12
2019-04-09T08:44:15.498Z,9.11
2019-04-09T08:44:57.062Z,9.09
2019-04-09T08:45:58.000Z,9.12
2019-04-09T08:47:05.489Z,9.09
2019-04-09T08:47:57.103Z,9.09
2019-04-09T08:48:58.136Z,9.08
2019-04-09T08:49:59.861Z,9.08
2019-04-09T08:51:07.245Z,9.14
2019-04-09T08:51:58.073Z,9.11
2019-04-09T08:52:57.007Z,9.15
2019-04-09T08:53:56.997Z,9.12
2019-04-09T08:55:02.913Z,9.17
2019-04-09T08:55:57.231Z,9.27
2019-04-09T08:56:57.976Z,9.28
2019-04-09T08:57:57.042Z,9.31
2019-04-09T08:59:01.038Z,9.23
2019-04-09T08:59:57.616Z,9.28
2019-04-09T09:02:43.835Z,9.24
2019-04-09T09:02:58.233Z,9.26
2019-04-09T09:04:17.210Z,9.3
2019-04-09T09:05:20.348Z,9.32
2019-04-09T09:06:17.202Z,9.28
2019-04-09T09:06:57.247Z,9.25
2019-04-09T09:08:09.198Z,9.26
2019-04-09T09:08:59.769Z,9.21
2019-04-09T09:09:57.684Z,9.26
2019-04-09T09:10:58.178Z,9.22
2019-04-09T09:12:09.070Z,9.27
2019-04-09T09:12:58.215Z,9.28
2019-04-09T09:13:58.424Z,9.26
2019-04-09T09:14:57.690Z,9.28
2019-04-09T09:15:57.796Z,9.29
2019-04-09T09:17:11.101Z,9.31
2019-04-09T09:17:57.283Z,9.34
2019-04-09T09:18:58.768Z,9.25
2019-04-09T09:19:57.532Z,9.41
2019-04-09T09:20:57.737Z,9.38
2019-04-09T09:22:07.477Z,9.36
2019-04-09T09:22:56.958Z,9.33
2019-04-09T09:24:01.282Z,9.43
2019-04-09T09:24:57.969Z,9.44
2019-04-09T09:26:08.866Z,9.46
2019-04-09T09:26:58.148Z,9.49
2019-04-09T09:28:05.787Z,9.43
2019-04-09T09:28:57.999Z,9.49
2019-04-09T09:29:58.030Z,9.5
2019-04-09T09:31:33.433Z,9.52
2019-04-09T09:32:06.214Z,9.52
2019-04-09T09:32:56.988Z,9.49
2019-04-09T09:33:57.616Z,9.48
2019-04-09T09:35:04.102Z,9.29
2019-04-09T09:36:10.395Z,9.44
2019-04-09T09:36:58.399Z,9.43
2019-04-09T09:38:00.173Z,9.41
2019-04-09T09:39:01.170Z,9.44
2019-04-09T09:40:01.356Z,9.44
2019-04-09T09:40:57.003Z,9.42
2019-04-09T09:41:57.127Z,9.52
2019-04-09T09:42:56.965Z,9.46
2019-04-09T09:43:56.963Z,9.42
2019-04-09T09:45:06.881Z,9.43
2019-04-09T09:46:04.815Z,9.46
2019-04-09T09:46:57.064Z,9.43
2019-04-09T09:48:00.038Z,9.51
2019-04-09T09:49:01.272Z,9.51
2019-04-09T09:50:11.862Z,9.52
2019-04-09T09:50:58.179Z,9.66
2019-04-09T09:51:56.975Z,9.67
2019-04-09T09:53:06.585Z,9.71
2019-04-09T09:54:07.928Z,9.56
2019-04-09T09:54:58.090Z,9.57
2019-04-09T09:56:08.343Z,9.68
2019-04-09T09:56:56.958Z,9.53
2019-04-09T09:57:56.983Z,9.51
2019-04-09T09:58:56.935Z,9.61
2019-04-09T10:00:11.448Z,9.62
2019-04-09T10:01:35.531Z,9.69
2019-04-09T10:02:09.984Z,9.7
2019-04-09T10:02:58.748Z,9.65
2019-04-09T10:03:56.945Z,9.69
2019-04-09T10:04:59.572Z,9.51
2019-04-09T10:06:20.833Z,9.71
2019-04-09T10:06:57.464Z,9.69
2019-04-09T10:08:17.729Z,9.71
2019-04-09T10:08:56.910Z,9.73
2019-04-09T10:09:57.652Z,9.84
2019-04-09T10:11:03.262Z,9.76
2019-04-09T10:11:58.070Z,9.76
2019-04-09T10:13:03.197Z,9.85
2019-04-09T10:13:59.758Z,9.79
2019-04-09T10:15:03.041Z,9.91
2019-04-09T10:15:58.138Z,9.86
2019-04-09T10:16:57.495Z,9.94
2019-04-09T10:18:06.508Z,9.93
2019-04-09T10:19:25.253Z,9.86
2019-04-09T10:20:01.754Z,9.93
2019-04-09T10:20:57.290Z,9.78
2019-04-09T10:22:04.678Z,9.9
2019-04-09T10:23:02.940Z,9.89
2019-04-09T10:24:35.805Z,9.89
2019-04-09T10:24:56.899Z,10
2019-04-09T10:25:56.928Z,10.07
2019-04-09T10:26:56.908Z,10.07
2019-04-09T10:27:58.155Z,10.05
2019-04-09T10:29:15.446Z,10.2
2019-04-09T10:29:56.896Z,10.15
2019-04-09T10:30:59.119Z,10.13
2019-04-09T10:31:56.896Z,10.04
2019-04-09T10:32:56.937Z,10.09
2019-04-09T10:33:57.826Z,10.17
2019-04-09T10:35:10.451Z,10.27
2019-04-09T10:36:08.307Z,10.19
2019-04-09T10:36:57.398Z,9.97
2019-04-09T10:37:57.091Z,9.94
2019-04-09T10:39:02.311Z,9.99
2019-04-09T10:39:57.315Z,10.12
2019-04-09T10:40:56.861Z,10.05
2019-04-09T10:42:09.503Z,10.13
2019-04-09T10:42:56.909Z,10.17
2019-04-09T10:43:57.370Z,10.17
2019-04-09T10:44:57.466Z,10.11
2019-04-09T10:46:02.124Z,10.22
2019-04-09T10:46:57.055Z,10.11
2019-04-09T10:47:56.879Z,10.2
2019-04-09T10:49:03.449Z,9.86
2019-04-09T10:49:58.118Z,9.99
2019-04-09T10:50:56.853Z,10.02
2019-04-09T10:51:57.801Z,9.88
2019-04-09T10:52:57.357Z,9.69
2019-04-09T10:54:08.215Z,9.93
2019-04-09T10:54:57.650Z,9.76
2019-04-09T10:55:58.133Z,9.77
2019-04-09T10:57:11.628Z,9.78
2019-04-09T10:57:58.382Z,9.88
2019-04-09T10:58:57.220Z,9.89
2019-04-09T11:00:09.117Z,9.8
2019-04-09T11:00:56.871Z,9.86
2019-04-09T11:01:58.804Z,9.93
2019-04-09T11:03:04.929Z,9.87
2019-04-09T11:03:57.008Z,9.8
2019-04-09T11:04:58.131Z,9.84
2019-04-09T11:06:04.208Z,9.88
2019-04-09T11:07:06.179Z,10.02
2019-04-09T11:08:07.824Z,9.73
2019-04-09T11:08:57.392Z,9.81
2019-04-09T11:10:03.903Z,9.85
2019-04-09T11:10:57.031Z,9.63
2019-04-09T11:11:57.826Z,9.8
2019-04-09T11:13:05.539Z,9.79
2019-04-09T11:13:56.830Z,9.89
2019-04-09T11:15:03.842Z,9.71
2019-04-09T11:16:06.036Z,9.7
2019-04-09T11:17:06.808Z,9.77
2019-04-09T11:17:57.299Z,9.86
2019-04-09T11:18:58.143Z,9.85
2019-04-09T11:20:01.976Z,9.86
2019-04-09T11:21:10.669Z,9.8
2019-04-09T11:21:56.834Z,9.81
2019-04-09T11:22:59.130Z,9.81
2019-04-09T11:24:03.979Z,9.86
2019-04-09T11:25:04.526Z,9.91
2019-04-09T11:25:58.017Z,9.91
2019-04-09T11:26:58.134Z,9.97
2019-04-09T11:27:57.085Z,9.95
2019-04-09T11:28:56.853Z,9.7
2019-04-09T11:29:57.502Z,9.81
2019-04-09T11:30:58.140Z,9.9
2019-04-09T11:32:12.321Z,9.9
2019-04-09T11:32:56.779Z,9.91
2019-04-09T11:33:57.569Z,9.99
2019-04-09T11:34:57.788Z,9.87
2019-04-09T11:35:56.977Z,9.87
2019-04-09T11:36:57.392Z,9.88
2019-04-09T11:37:57.398Z,9.78
2019-04-09T11:38:56.799Z,9.91
2019-04-09T11:39:56.945Z,9.94
2019-04-09T11:40:58.006Z,9.95
2019-04-09T11:41:56.817Z,9.92
2019-04-09T11:42:56.831Z,9.77
2019-04-09T11:43:56.828Z,9.99
2019-04-09T11:44:57.657Z,9.84
2019-04-09T11:45:57.971Z,9.74
2019-04-09T11:46:57.158Z,9.87
2019-04-09T11:47:57.344Z,9.75
2019-04-09T11:48:56.962Z,9.86
2019-04-09T11:49:56.788Z,9.76
2019-04-09T11:50:57.506Z,9.77
2019-04-09T11:51:56.794Z,9.71
2019-04-09T11:52:56.830Z,9.8
2019-04-09T11:54:01.770Z,9.57
2019-04-09T11:54:56.831Z,9.54
2019-04-09T11:55:57.979Z,9.66
2019-04-09T11:56:56.761Z,9.69
2019-04-09T11:57:57.260Z,9.66
2019-04-09T11:58:56.851Z,9.76
2019-04-09T11:59:57.574Z,9.87
2019-04-09T12:00:56.771Z,9.8
2019-04-09T12:02:14.803Z,9.75
2019-04-09T12:02:56.968Z,9.72
2019-04-09T12:03:57.192Z,9.83
2019-04-09T12:04:56.764Z,9.72
2019-04-09T12:05:56.821Z,9.74
2019-04-09T12:06:57.998Z,9.81
2019-04-09T12:07:56.756Z,9.68
2019-04-09T12:08:57.356Z,9.84
2019-04-09T12:09:56.785Z,9.76
2019-04-09T12:10:56.891Z,9.76
2019-04-09T12:11:57.896Z,9.9
2019-04-09T12:12:56.734Z,9.9
2019-04-09T12:13:57.209Z,9.84
2019-04-09T12:14:56.793Z,9.86
2019-04-09T12:15:57.406Z,9.93
2019-04-09T12:16:57.719Z,9.7
2019-04-09T12:17:57.702Z,9.51
2019-04-09T12:18:58.001Z,9.72
2019-04-09T12:20:16.617Z,9.6
2019-04-09T12:20:57.325Z,9.77
2019-04-09T12:21:57.655Z,9.86
2019-04-09T12:22:57.457Z,9.72
2019-04-09T12:23:57.185Z,9.61
2019-04-09T12:24:57.820Z,9.58
2019-04-09T12:25:56.741Z,9.54
2019-04-09T12:26:59.548Z,9.7
2019-04-09T12:27:57.149Z,9.72
2019-04-09T12:29:26.279Z,9.77
2019-04-09T12:29:57.467Z,9.84
2019-04-09T12:30:57.746Z,9.84
2019-04-09T12:31:56.765Z,9.78
2019-04-09T12:32:56.820Z,9.88
2019-04-09T12:34:00.414Z,9.9
2019-04-09T12:34:57.133Z,9.76
2019-04-09T12:35:56.755Z,9.68
2019-04-09T12:36:59.781Z,9.66
2019-04-09T12:37:57.917Z,9.58
2019-04-09T12:38:57.954Z,9.45
2019-04-09T12:39:56.854Z,9.53
2019-04-09T12:40:57.421Z,9.44
2019-04-09T12:41:58.009Z,9.63
2019-04-09T12:42:57.008Z,9.64
2019-04-09T12:43:56.809Z,9.67
2019-04-09T12:44:56.763Z,9.71
2019-04-09T12:45:57.780Z,9.65
2019-04-09T12:47:05.710Z,9.68
2019-04-09T12:47:56.934Z,9.5
2019-04-09T12:48:56.961Z,9.57
2019-04-09T12:49:58.181Z,9.47
2019-04-09T12:50:56.752Z,9.71
2019-04-09T12:51:57.699Z,9.7
2019-04-09T12:52:56.798Z,9.64
2019-04-09T12:53:56.793Z,9.62
2019-04-09T12:54:57.980Z,9.7
2019-04-09T12:55:56.721Z,9.63
2019-04-09T12:56:57.684Z,9.59
2019-04-09T12:57:58.054Z,9.61
2019-04-09T12:58:57.070Z,9.59
2019-04-09T12:59:56.682Z,9.65
2019-04-09T13:00:56.732Z,9.82
2019-04-09T13:01:57.510Z,9.81
2019-04-09T13:02:56.776Z,9.77
2019-04-09T13:04:01.854Z,9.77
2019-04-09T13:04:57.193Z,9.71
2019-04-09T13:05:57.029Z,9.48
2019-04-09T13:06:56.765Z,9.54
2019-04-09T13:07:56.682Z,9.65
2019-04-09T13:08:56.736Z,9.68
2019-04-09T13:09:57.344Z,9.67
2019-04-09T13:10:58.322Z,9.61
2019-04-09T13:11:57.862Z,9.58
2019-04-09T13:13:04.810Z,9.67
2019-04-09T13:13:57.515Z,9.61
2019-04-09T13:14:57.929Z,9.67
2019-04-09T13:15:56.940Z,9.65
2019-04-09T13:16:57.365Z,9.7
2019-04-09T13:17:56.701Z,9.61
2019-04-09T13:18:57.488Z,9.5
2019-04-09T13:19:58.028Z,9.53
2019-04-09T13:20:59.964Z,9.57
2019-04-09T13:21:56.708Z,9.76
2019-04-09T13:22:56.681Z,9.74